createdAt,value
2018-07-24T00:00:40.810Z,78
2018-07-24T00:01:41.530Z,78
2018-07-24T00:02:42.252Z,78
2018-07-24T00:03:42.970Z,78
2018-07-24T00:04:43.703Z,78
2018-07-24T00:05:44.422Z,78
2018-07-24T00:06:45.139Z,78
2018-07-24T00:07:45.857Z,78
2018-07-24T00:08:46.589Z,78
2018-07-24T00:09:47.319Z,78
2018-07-24T00:10:48.040Z,78
2018-07-24T00:11:48.755Z,78
2018-07-24T00:12:49.472Z,78
2018-07-24T00:13:50.198Z,77
2018-07-24T00:14:50.914Z,78
2018-07-24T00:15:51.648Z,77
2018-07-24T00:16:52.366Z,77
2018-07-24T00:17:53.085Z,78
2018-07-24T00:18:53.802Z,77
2018-07-24T00:19:54.521Z,77
2018-07-24T00:20:55.253Z,77
2018-07-24T00:21:55.984Z,77
2018-07-24T00:22:56.716Z,77
2018-07-24T00:23:57.434Z,77
2018-07-24T00:24:58.165Z,77
2018-07-24T00:25:58.888Z,77
2018-07-24T00:26:59.610Z,77
2018-07-24T00:28:00.323Z,77
2018-07-24T00:29:01.043Z,78
2018-07-24T00:30:01.759Z,77
2018-07-24T00:31:02.480Z,78
2018-07-24T00:32:03.239Z,77
2018-07-24T00:33:03.908Z,77
2018-07-24T00:34:04.638Z,77
2018-07-24T00:35:05.356Z,77
2018-07-24T00:36:06.090Z,77
2018-07-24T00:37:06.809Z,77
2018-07-24T00:38:07.528Z,77
2018-07-24T00:39:08.246Z,77
2018-07-24T00:40:08.977Z,77
2018-07-24T00:41:09.694Z,77
2018-07-24T00:42:10.421Z,77
2018-07-24T00:43:11.144Z,77
2018-07-24T00:57:07.432Z,77
2018-07-24T00:58:08.150Z,77
2018-07-24T01:00:18.556Z,77
2018-07-24T01:01:19.272Z,77
2018-07-24T01:02:20.003Z,77
2018-07-24T01:03:20.722Z,77
2018-07-24T01:04:21.857Z,77
2018-07-24T01:05:22.572Z,77
2018-07-24T01:06:23.289Z,77
2018-07-24T01:07:24.005Z,77
2018-07-24T01:08:24.723Z,77
2018-07-24T01:09:25.436Z,76
2018-07-24T01:10:26.152Z,76
2018-07-24T01:11:26.878Z,76
2018-07-24T01:12:27.598Z,76
2018-07-24T01:13:28.316Z,76
2018-07-24T01:14:29.034Z,76
2018-07-24T01:15:29.748Z,76
2018-07-24T01:16:30.465Z,75
2018-07-24T01:17:31.184Z,75
2018-07-24T01:18:31.900Z,75
2018-07-24T01:19:32.618Z,75
2018-07-24T01:20:33.334Z,75
2018-07-24T01:21:34.048Z,75
2018-07-24T01:22:34.763Z,75
2018-07-24T01:23:35.477Z,75
2018-07-24T01:24:36.194Z,75
2018-07-24T01:25:36.908Z,74
2018-07-24T01:26:37.641Z,74
2018-07-24T01:27:38.356Z,74
2018-07-24T01:28:39.083Z,74
2018-07-24T01:29:39.803Z,74
2018-07-24T01:30:40.516Z,74
2018-07-24T01:31:41.235Z,74
2018-07-24T01:32:41.967Z,74
2018-07-24T01:33:42.682Z,74
2018-07-24T01:34:43.411Z,74
2018-07-24T01:35:44.128Z,74
2018-07-24T01:36:44.846Z,74
2018-07-24T01:37:45.562Z,74
2018-07-24T01:38:46.293Z,74
2018-07-24T01:39:47.011Z,74
2018-07-24T01:40:47.727Z,74
2018-07-24T01:41:48.457Z,73
2018-07-24T01:42:49.178Z,74
2018-07-24T01:43:49.901Z,73
2018-07-24T01:44:50.622Z,73
2018-07-24T01:45:51.338Z,73
2018-07-24T01:46:52.070Z,73
2018-07-24T01:47:52.800Z,73
2018-07-24T01:48:53.516Z,73
2018-07-24T01:49:54.248Z,73
2018-07-24T01:50:54.961Z,73
2018-07-24T01:51:55.678Z,73
2018-07-24T01:52:56.406Z,73
2018-07-24T01:53:57.125Z,73
2018-07-24T01:54:57.842Z,73
2018-07-24T01:55:58.560Z,73
2018-07-24T01:56:59.277Z,73
2018-07-24T01:57:59.994Z,73
2018-07-24T01:59:00.724Z,73
2018-07-24T02:00:01.451Z,73
2018-07-24T02:01:02.166Z,72
2018-07-24T02:02:02.883Z,72
2018-07-24T02:03:03.600Z,73
2018-07-24T02:04:04.314Z,73
2018-07-24T02:05:05.031Z,72
2018-07-24T02:06:05.748Z,72
2018-07-24T02:07:06.466Z,72
2018-07-24T02:08:07.208Z,72
2018-07-24T02:09:07.912Z,72
2018-07-24T02:10:08.635Z,72
2018-07-24T02:11:09.343Z,72
2018-07-24T02:12:10.060Z,72
2018-07-24T02:13:10.778Z,72
2018-07-24T02:14:11.499Z,72
2018-07-24T02:15:12.230Z,72
2018-07-24T02:16:12.947Z,72
2018-07-24T02:17:13.665Z,72
2018-07-24T02:18:14.397Z,71
2018-07-24T02:19:15.114Z,71
2018-07-24T02:20:15.843Z,71
2018-07-24T02:21:16.559Z,71
2018-07-24T02:22:17.277Z,71
2018-07-24T02:23:17.991Z,71
2018-07-24T02:24:18.706Z,71
2018-07-24T02:25:19.423Z,71
2018-07-24T02:26:20.141Z,71
2018-07-24T02:27:20.853Z,71
2018-07-24T02:28:21.570Z,71
2018-07-24T02:29:22.284Z,70
2018-07-24T02:30:23.001Z,71
2018-07-24T02:31:23.715Z,71
2018-07-24T02:32:24.431Z,71
2018-07-24T02:33:25.160Z,70
2018-07-24T02:34:25.878Z,70
2018-07-24T02:35:26.613Z,70
2018-07-24T02:36:27.335Z,71
2018-07-24T02:37:28.052Z,71
2018-07-24T02:38:28.769Z,71
2018-07-24T02:39:29.487Z,71
2018-07-24T02:40:30.203Z,71
2018-07-24T02:41:30.924Z,71
2018-07-24T02:42:31.650Z,71
2018-07-24T02:43:32.379Z,71
2018-07-24T02:44:33.096Z,71
2018-07-24T02:45:33.814Z,70
2018-07-24T02:46:34.529Z,70
2018-07-24T02:47:35.257Z,71
2018-07-24T02:48:36.054Z,71
2018-07-24T02:49:36.712Z,70
2018-07-24T02:50:37.426Z,71
2018-07-24T02:51:38.142Z,71
2018-07-24T02:52:38.861Z,70
2018-07-24T02:53:39.574Z,70
2018-07-24T02:54:40.305Z,71
2018-07-24T02:55:41.023Z,70
2018-07-24T02:56:41.740Z,71
2018-07-24T02:57:42.454Z,70
2018-07-24T02:58:43.171Z,70
2018-07-24T02:59:43.886Z,70
2018-07-24T03:00:44.601Z,70
2018-07-24T03:01:45.317Z,70
2018-07-24T03:02:46.033Z,70
2018-07-24T03:03:46.747Z,71
2018-07-24T03:04:47.479Z,71
2018-07-24T03:05:48.189Z,70
2018-07-24T03:06:48.905Z,70
2018-07-24T03:07:49.618Z,70
2018-07-24T03:08:50.333Z,70
2018-07-24T03:09:51.061Z,70
2018-07-24T03:10:51.777Z,70
2018-07-24T03:11:52.490Z,70
2018-07-24T03:12:53.205Z,70
2018-07-24T03:13:53.953Z,69
2018-07-24T03:14:54.652Z,70
2018-07-24T03:15:55.383Z,69
2018-07-24T03:16:56.104Z,69
2018-07-24T03:17:56.835Z,69
2018-07-24T03:18:57.554Z,69
2018-07-24T03:19:58.282Z,69
2018-07-24T03:20:59.003Z,69
2018-07-24T03:21:59.716Z,70
2018-07-24T03:23:00.431Z,69
2018-07-24T03:24:01.150Z,69
2018-07-24T03:25:01.866Z,69
2018-07-24T03:26:02.584Z,69
2018-07-24T03:27:03.300Z,69
2018-07-24T03:28:04.030Z,69
2018-07-24T03:29:04.761Z,69
2018-07-24T03:30:05.477Z,69
2018-07-24T03:31:06.189Z,69
2018-07-24T03:32:06.906Z,69
2018-07-24T03:33:07.623Z,69
2018-07-24T03:34:08.342Z,69
2018-07-24T03:35:09.068Z,69
2018-07-24T03:36:09.786Z,68
2018-07-24T03:37:10.521Z,69
2018-07-24T03:38:11.236Z,69
2018-07-24T03:39:11.972Z,69
2018-07-24T03:40:12.698Z,68
2018-07-24T03:41:13.431Z,69
2018-07-24T03:42:14.161Z,68
2018-07-24T03:43:14.878Z,68
2018-07-24T03:44:15.593Z,68
2018-07-24T03:45:16.314Z,69
2018-07-24T03:46:17.042Z,68
2018-07-24T03:47:17.774Z,68
2018-07-24T03:48:18.492Z,68
2018-07-24T03:49:19.212Z,68
2018-07-24T03:50:19.928Z,68
2018-07-24T03:51:20.649Z,68
2018-07-24T03:52:21.368Z,68
2018-07-24T03:53:22.088Z,68
2018-07-24T03:54:22.805Z,68
2018-07-24T03:55:23.533Z,69
2018-07-24T03:56:24.252Z,68
2018-07-24T03:57:24.969Z,68
2018-07-24T03:58:25.689Z,68
2018-07-24T03:59:26.421Z,68
2018-07-24T04:00:27.138Z,68
2018-07-24T04:01:27.856Z,68
2018-07-24T04:02:28.657Z,68
2018-07-24T04:03:29.293Z,68
2018-07-24T04:04:30.012Z,68
2018-07-24T04:05:30.730Z,69
2018-07-24T04:06:31.450Z,69
2018-07-24T04:07:32.168Z,69
2018-07-24T04:08:32.891Z,69
2018-07-24T04:09:33.610Z,68
2018-07-24T04:10:34.330Z,68
2018-07-24T04:11:35.047Z,68
2018-07-24T04:12:35.765Z,69
2018-07-24T04:13:36.482Z,69
2018-07-24T04:14:37.204Z,70
2018-07-24T04:15:37.922Z,69
2018-07-24T04:16:38.655Z,69
2018-07-24T04:17:39.380Z,68
2018-07-24T04:18:40.109Z,69
2018-07-24T04:19:40.829Z,69
2018-07-24T04:20:41.549Z,69
2018-07-24T04:21:42.271Z,70
2018-07-24T04:22:43.003Z,69
2018-07-24T04:23:43.723Z,69
2018-07-24T04:24:44.447Z,70
2018-07-24T04:25:45.163Z,70
2018-07-24T04:26:45.883Z,70
2018-07-24T04:27:46.604Z,71
2018-07-24T04:28:47.325Z,69
2018-07-24T04:29:48.058Z,70
2018-07-24T04:30:48.844Z,70
2018-07-24T04:31:49.515Z,71
2018-07-24T04:32:50.248Z,71
2018-07-24T04:33:50.968Z,70
2018-07-24T04:34:51.691Z,71
2018-07-24T04:35:52.423Z,70
2018-07-24T04:36:53.145Z,70
2018-07-24T04:37:53.864Z,70
2018-07-24T04:38:54.583Z,70
2018-07-24T04:39:55.373Z,70
2018-07-24T04:40:56.037Z,71
2018-07-24T04:41:56.768Z,71
2018-07-24T04:42:57.507Z,71
2018-07-24T04:43:58.226Z,70
2018-07-24T04:44:58.963Z,71
2018-07-24T04:45:59.683Z,71
2018-07-24T04:47:00.404Z,72
2018-07-24T04:48:01.140Z,71
2018-07-24T04:49:01.865Z,72
2018-07-24T04:50:02.586Z,72
2018-07-24T04:51:03.309Z,71
2018-07-24T04:52:04.030Z,71
2018-07-24T04:53:04.751Z,71
2018-07-24T04:54:05.472Z,72
2018-07-24T04:55:06.193Z,72
2018-07-24T04:56:06.915Z,73
2018-07-24T04:57:07.651Z,72
2018-07-24T04:58:08.371Z,73
2018-07-24T04:59:09.093Z,73
2018-07-24T05:00:09.827Z,73
2018-07-24T05:01:10.553Z,73
2018-07-24T05:02:11.275Z,73
2018-07-24T05:03:12.062Z,73
2018-07-24T05:04:12.718Z,74
2018-07-24T05:05:13.440Z,73
2018-07-24T05:06:14.166Z,74
2018-07-24T05:07:14.886Z,74
2018-07-24T05:08:15.620Z,73
2018-07-24T05:09:16.342Z,73
2018-07-24T05:10:17.107Z,73
2018-07-24T05:11:17.792Z,74
2018-07-24T05:12:18.519Z,73
2018-07-24T05:13:19.237Z,73
2018-07-24T05:14:19.960Z,74
2018-07-24T05:15:20.696Z,74
2018-07-24T05:16:21.435Z,73
2018-07-24T05:17:22.167Z,73
2018-07-24T05:18:22.891Z,73
2018-07-24T05:19:23.613Z,74
2018-07-24T05:20:24.337Z,74
2018-07-24T05:21:25.057Z,74
2018-07-24T05:22:25.779Z,74
2018-07-24T05:23:26.537Z,75
2018-07-24T05:24:27.226Z,74
2018-07-24T05:25:27.948Z,75
2018-07-24T05:26:28.672Z,74
2018-07-24T05:27:29.392Z,74
2018-07-24T05:28:30.117Z,74
2018-07-24T05:29:30.840Z,74
2018-07-24T05:30:31.565Z,75
2018-07-24T05:31:32.304Z,75
2018-07-24T05:32:33.039Z,75
2018-07-24T05:33:33.774Z,75
2018-07-24T05:34:34.503Z,75
2018-07-24T05:35:35.237Z,75
2018-07-24T05:36:35.975Z,75
2018-07-24T05:37:36.698Z,75
2018-07-24T05:38:37.432Z,76
2018-07-24T05:39:38.156Z,76
2018-07-24T05:40:38.879Z,75
2018-07-24T05:41:39.602Z,75
2018-07-24T05:42:40.325Z,75
2018-07-24T05:43:41.047Z,76
2018-07-24T05:44:41.786Z,76
2018-07-24T05:45:42.514Z,76
2018-07-24T05:46:43.246Z,76
2018-07-24T05:47:43.974Z,76
2018-07-24T05:48:44.713Z,76
2018-07-24T05:49:45.432Z,76
2018-07-24T05:50:46.157Z,76
2018-07-24T05:51:46.884Z,76
2018-07-24T05:52:47.611Z,76
2018-07-24T05:53:48.338Z,76
2018-07-24T05:54:49.061Z,76
2018-07-24T05:55:49.786Z,76
2018-07-24T05:56:50.522Z,77
2018-07-24T05:57:51.256Z,76
2018-07-24T05:58:52.002Z,76
2018-07-24T05:59:52.728Z,76
2018-07-24T06:00:53.454Z,76
2018-07-24T06:01:54.213Z,77
2018-07-24T06:02:54.904Z,77
2018-07-24T06:03:55.642Z,76
2018-07-24T06:04:56.374Z,77
2018-07-24T06:07:12.967Z,77
2018-07-24T06:08:13.844Z,77
2018-07-24T06:09:14.569Z,77
2018-07-24T06:10:15.295Z,77
2018-07-24T06:11:16.035Z,77
2018-07-24T06:13:32.777Z,77
2018-07-24T06:14:33.552Z,77
2018-07-24T06:15:34.237Z,77
2018-07-24T06:16:34.994Z,77
2018-07-24T06:18:51.724Z,78
2018-07-24T06:19:52.460Z,77
2018-07-24T06:20:53.199Z,77
2018-07-24T06:21:55.153Z,77
2018-07-24T06:22:56.062Z,77
2018-07-24T06:23:57.196Z,77
2018-07-24T06:30:00.326Z,77
2018-07-24T06:31:01.054Z,77
2018-07-24T06:32:01.781Z,76
2018-07-24T06:33:02.508Z,77
2018-07-24T06:34:03.236Z,77
2018-07-24T06:35:03.974Z,77
2018-07-24T06:36:04.707Z,77
2018-07-24T06:37:05.434Z,77
2018-07-24T06:38:06.162Z,77
2018-07-24T06:39:06.889Z,76
2018-07-24T06:40:07.614Z,76
2018-07-24T06:41:08.344Z,76
2018-07-24T06:42:09.072Z,76
2018-07-24T06:43:09.793Z,76
2018-07-24T06:44:10.568Z,76
2018-07-24T06:45:11.263Z,76
2018-07-24T06:46:12.000Z,76
2018-07-24T06:47:12.725Z,76
2018-07-24T06:48:13.454Z,76
2018-07-24T06:49:14.182Z,76
2018-07-24T06:50:14.910Z,75
2018-07-24T06:51:15.701Z,75
2018-07-24T06:52:16.379Z,75
2018-07-24T06:53:17.103Z,74
2018-07-24T06:54:17.827Z,75
2018-07-24T06:55:18.556Z,74
2018-07-24T06:56:19.284Z,74
2018-07-24T06:57:20.011Z,73
2018-07-24T06:58:20.736Z,74
2018-07-24T06:59:21.479Z,73
2018-07-24T07:00:22.203Z,73
2018-07-24T07:02:25.669Z,73
2018-07-24T07:03:26.424Z,73
2018-07-24T07:04:27.124Z,72
2018-07-24T07:05:27.866Z,72
2018-07-24T07:06:28.595Z,71
2018-07-24T07:07:29.336Z,73
2018-07-24T07:08:30.051Z,71
2018-07-24T07:09:30.775Z,71
2018-07-24T07:10:31.503Z,71
2018-07-24T07:11:32.230Z,70
2018-07-24T07:12:32.955Z,70
2018-07-24T07:13:33.737Z,69
2018-07-24T07:14:34.430Z,69
2018-07-24T07:15:35.148Z,70
2018-07-24T07:16:35.878Z,69
2018-07-24T07:17:36.602Z,69
2018-07-24T07:18:37.326Z,67
2018-07-24T07:19:38.065Z,67
2018-07-24T07:20:38.813Z,67
2018-07-24T07:21:39.517Z,67
2018-07-24T07:22:40.247Z,66
2018-07-24T07:23:40.980Z,66
2018-07-24T07:24:41.708Z,66
2018-07-24T07:25:42.432Z,66
2018-07-24T07:26:43.158Z,66
2018-07-24T07:27:43.886Z,66
2018-07-24T07:28:44.618Z,64
2018-07-24T07:29:45.338Z,65
2018-07-24T07:30:46.066Z,64
2018-07-24T07:31:46.792Z,64
2018-07-24T07:32:47.520Z,62
2018-07-24T07:33:48.250Z,61
2018-07-24T07:34:48.979Z,61
2018-07-24T07:35:49.706Z,61
2018-07-24T07:36:50.451Z,60
2018-07-24T07:37:51.194Z,61
2018-07-24T07:38:51.927Z,61
2018-07-24T07:39:52.671Z,62
2018-07-24T07:40:53.400Z,61
2018-07-24T07:41:54.132Z,60
2018-07-24T07:42:54.861Z,60
2018-07-24T07:43:55.629Z,59
2018-07-24T07:44:56.324Z,58
2018-07-24T07:45:57.059Z,57
2018-07-24T07:46:57.787Z,55
2018-07-24T07:47:58.519Z,54
2018-07-24T07:48:59.250Z,54
2018-07-24T07:49:59.996Z,54
2018-07-24T07:51:00.730Z,54
2018-07-24T07:52:01.464Z,54
2018-07-24T07:53:02.200Z,54
2018-07-24T07:54:02.943Z,53
2018-07-24T07:55:03.689Z,53
2018-07-24T07:56:04.425Z,53
2018-07-24T07:57:05.159Z,53
2018-07-24T07:58:05.911Z,53
2018-07-24T07:59:06.658Z,52
2018-07-24T08:00:07.392Z,52
2018-07-24T08:01:08.127Z,52
2018-07-24T08:02:08.875Z,52
2018-07-24T08:03:09.613Z,51
2018-07-24T08:04:10.409Z,50
2018-07-24T08:05:11.110Z,50
2018-07-24T08:06:11.841Z,50
2018-07-24T08:07:12.577Z,49
2018-07-24T08:08:13.323Z,49
2018-07-24T08:09:14.074Z,49
2018-07-24T08:10:14.808Z,50
2018-07-24T08:11:15.543Z,49
2018-07-24T08:12:16.321Z,49
2018-07-24T08:13:17.011Z,49
2018-07-24T08:14:17.752Z,48
2018-07-24T08:15:18.486Z,48
2018-07-24T08:16:19.227Z,48
2018-07-24T08:17:19.958Z,47
2018-07-24T08:18:20.695Z,49
2018-07-24T08:19:21.433Z,49
2018-07-24T08:20:22.174Z,48
2018-07-24T08:21:22.915Z,47
2018-07-24T08:22:23.688Z,46
2018-07-24T08:23:24.404Z,45
2018-07-24T08:24:25.145Z,45
2018-07-24T08:25:25.900Z,44
2018-07-24T08:26:26.658Z,42
2018-07-24T08:27:27.406Z,42
2018-07-24T08:28:28.150Z,42
2018-07-24T08:29:28.902Z,41
2018-07-24T08:30:29.648Z,41
2018-07-24T08:31:30.390Z,41
2018-07-24T08:32:31.131Z,41
2018-07-24T08:33:31.908Z,40
2018-07-24T08:34:32.633Z,40
2018-07-24T08:35:33.389Z,39
2018-07-24T08:36:34.129Z,40
2018-07-24T08:37:34.871Z,40
2018-07-24T08:38:35.611Z,40
2018-07-24T08:39:36.353Z,39
2018-07-24T08:40:37.089Z,39
2018-07-24T08:41:37.832Z,38
2018-07-24T08:42:38.571Z,37
2018-07-24T08:43:39.325Z,37
2018-07-24T08:44:40.083Z,37
2018-07-24T08:45:40.826Z,37
2018-07-24T08:46:41.566Z,37
2018-07-24T08:47:42.324Z,35
2018-07-24T08:48:43.065Z,35
2018-07-24T08:49:43.806Z,35
2018-07-24T08:50:44.560Z,35
2018-07-24T08:51:45.302Z,35
2018-07-24T08:52:46.143Z,35
2018-07-24T08:53:47.132Z,35
2018-07-24T08:54:47.679Z,35
2018-07-24T08:55:48.547Z,35
2018-07-24T08:56:49.006Z,34
2018-07-24T08:57:49.766Z,33
2018-07-24T08:58:50.492Z,33
2018-07-24T08:59:51.233Z,34
2018-07-24T09:00:52.018Z,35
2018-07-24T09:01:52.748Z,35
2018-07-24T09:02:53.522Z,34
2018-07-24T09:03:54.283Z,34
2018-07-24T09:04:54.969Z,33
2018-07-24T09:05:55.709Z,33
2018-07-24T09:06:56.448Z,32
2018-07-24T09:07:57.188Z,31
2018-07-24T09:08:57.941Z,31
2018-07-24T09:09:58.682Z,30
2018-07-24T09:10:59.421Z,30
2018-07-24T09:12:00.168Z,31
2018-07-24T09:13:00.919Z,30
2018-07-24T09:14:01.673Z,30
2018-07-24T09:15:02.414Z,30
2018-07-24T09:16:03.168Z,31
2018-07-24T09:17:03.908Z,31
2018-07-24T09:18:04.651Z,32
2018-07-24T09:19:05.403Z,34
2018-07-24T09:20:06.140Z,34
2018-07-24T09:21:06.877Z,35
2018-07-24T09:22:07.619Z,34
2018-07-24T09:23:08.371Z,35
2018-07-24T09:24:09.109Z,34
2018-07-24T09:25:09.862Z,35
2018-07-24T09:26:10.600Z,33
2018-07-24T09:27:11.341Z,33
2018-07-24T09:28:12.091Z,32
2018-07-24T09:29:12.834Z,31
2018-07-24T09:30:13.575Z,31
2018-07-24T09:31:14.316Z,31
2018-07-24T09:32:15.142Z,31
2018-07-24T09:33:15.791Z,30
2018-07-24T09:35:01.183Z,29
2018-07-24T09:36:01.922Z,28
2018-07-24T09:37:02.660Z,28
2018-07-24T09:38:03.397Z,29
2018-07-24T09:39:04.137Z,29
2018-07-24T09:40:04.875Z,29
2018-07-24T09:41:05.619Z,28
2018-07-24T09:42:06.353Z,27
2018-07-24T09:44:22.703Z,29
2018-07-24T09:45:23.454Z,30
2018-07-24T09:47:25.343Z,32
2018-07-24T09:51:38.390Z,29
2018-07-24T09:53:23.784Z,27
2018-07-24T09:54:24.521Z,27
2018-07-24T09:55:25.258Z,26
2018-07-24T09:56:26.028Z,25
2018-07-24T09:57:26.742Z,25
2018-07-24T09:58:27.481Z,26
2018-07-24T09:59:28.312Z,25
2018-07-24T10:00:28.965Z,24
2018-07-24T10:01:29.710Z,24
2018-07-24T10:02:30.443Z,23
2018-07-24T10:03:31.196Z,23
2018-07-24T10:04:31.936Z,25
2018-07-24T10:05:32.689Z,26
2018-07-24T10:06:33.429Z,26
2018-07-24T10:07:34.168Z,26
2018-07-24T10:08:34.906Z,27
2018-07-24T10:09:35.645Z,27
2018-07-24T10:10:36.382Z,26
2018-07-24T10:11:37.134Z,26
2018-07-24T10:12:37.913Z,26
2018-07-24T10:13:38.612Z,24
2018-07-24T10:14:39.352Z,24
2018-07-24T10:15:40.094Z,24
2018-07-24T10:16:40.888Z,25
2018-07-24T10:17:41.579Z,24
2018-07-24T10:18:42.331Z,23
2018-07-24T10:19:43.071Z,24
2018-07-24T10:20:43.809Z,24
2018-07-24T10:21:44.549Z,23
2018-07-24T10:22:45.288Z,22
2018-07-24T10:23:46.042Z,22
2018-07-24T10:24:46.781Z,21
2018-07-24T10:26:32.675Z,21
2018-07-24T10:27:33.414Z,21
2018-07-24T10:28:34.156Z,22
2018-07-24T10:29:34.896Z,21
2018-07-24T10:30:35.649Z,21
2018-07-24T10:36:03.077Z,21
2018-07-24T10:37:03.818Z,22
2018-07-24T10:38:04.558Z,22
2018-07-24T10:39:05.298Z,24
2018-07-24T10:40:06.048Z,25
2018-07-24T10:41:06.790Z,26
2018-07-24T10:42:07.542Z,25
2018-07-24T10:43:08.356Z,25
2018-07-24T10:44:09.023Z,25
2018-07-24T10:45:09.775Z,24
2018-07-24T10:46:10.515Z,23
2018-07-24T10:47:11.268Z,24
2018-07-24T10:48:12.006Z,24
2018-07-24T10:49:12.754Z,24
2018-07-24T10:51:06.156Z,24
2018-07-24T10:52:06.895Z,23
2018-07-24T10:54:28.367Z,24
2018-07-24T10:55:29.104Z,23
2018-07-24T10:56:29.844Z,23
2018-07-24T10:57:30.585Z,23
2018-07-24T10:58:31.324Z,24
2018-07-24T10:59:32.079Z,24
2018-07-24T11:00:32.820Z,24
2018-07-24T11:01:33.562Z,24
2018-07-24T11:02:34.302Z,24
2018-07-24T11:03:35.053Z,24
2018-07-24T11:04:35.791Z,25
2018-07-24T11:05:36.532Z,24
2018-07-24T11:06:37.271Z,23
2018-07-24T11:07:38.011Z,23
2018-07-24T11:08:38.752Z,22
2018-07-24T11:09:39.504Z,22
2018-07-24T11:10:40.244Z,21
2018-07-24T11:11:40.986Z,21
2018-07-24T11:12:41.723Z,21
2018-07-24T11:13:42.462Z,22
2018-07-24T11:14:43.205Z,23
2018-07-24T11:15:43.942Z,23
2018-07-24T11:16:44.696Z,21
2018-07-24T11:17:45.448Z,21
2018-07-24T11:18:46.188Z,22
2018-07-24T11:19:46.928Z,22
2018-07-24T11:20:47.683Z,23
2018-07-24T11:21:48.455Z,23
2018-07-24T11:22:49.428Z,23
2018-07-24T11:23:49.916Z,23
2018-07-24T11:24:50.655Z,22
2018-07-24T11:25:51.395Z,22
2018-07-24T11:26:52.135Z,22
2018-07-24T11:27:52.875Z,25
2018-07-24T11:28:53.616Z,25
2018-07-24T11:29:54.357Z,26
2018-07-24T11:30:55.097Z,26
2018-07-24T11:31:55.836Z,25
2018-07-24T11:32:56.623Z,25
2018-07-24T11:33:57.342Z,25
2018-07-24T11:34:58.114Z,25
2018-07-24T11:35:58.986Z,26
2018-07-24T11:36:59.582Z,25
2018-07-24T11:38:00.324Z,25
2018-07-24T11:39:01.063Z,24
2018-07-24T11:40:01.807Z,25
2018-07-24T11:41:02.609Z,26
2018-07-24T11:42:03.285Z,25
2018-07-24T11:43:04.027Z,24
2018-07-24T11:44:04.822Z,24
2018-07-24T11:45:05.507Z,22
2018-07-24T11:46:06.258Z,22
2018-07-24T11:47:07.000Z,22
2018-07-24T11:48:07.742Z,22
2018-07-24T11:49:08.481Z,22
2018-07-24T11:50:09.233Z,24
2018-07-24T11:51:09.960Z,25
2018-07-24T11:52:10.703Z,26
2018-07-24T11:53:11.441Z,27
2018-07-24T11:54:12.180Z,27
2018-07-24T11:55:12.932Z,27
2018-07-24T11:56:13.672Z,27
2018-07-24T11:57:14.427Z,28
2018-07-24T11:58:15.167Z,28
2018-07-24T11:59:15.918Z,29
2018-07-24T12:00:16.656Z,29
2018-07-24T12:01:17.396Z,28
2018-07-24T12:02:18.147Z,28
2018-07-24T12:03:18.886Z,27
2018-07-24T12:04:19.626Z,27
2018-07-24T12:05:20.364Z,25
2018-07-24T12:06:21.104Z,24
2018-07-24T12:07:21.842Z,24
2018-07-24T12:08:22.594Z,24
2018-07-24T12:09:23.335Z,25
2018-07-24T12:10:24.073Z,26
2018-07-24T12:11:24.813Z,27
2018-07-24T12:12:25.551Z,28
2018-07-24T12:13:26.292Z,27
2018-07-24T12:14:27.080Z,27
2018-07-24T12:15:27.769Z,25
2018-07-24T12:16:28.511Z,24
2018-07-24T12:17:29.248Z,24
2018-07-24T12:18:29.988Z,24
2018-07-24T12:19:30.764Z,23
2018-07-24T12:20:31.484Z,23
2018-07-24T12:21:32.224Z,24
2018-07-24T12:22:32.963Z,22
2018-07-24T12:23:33.721Z,23
2018-07-24T12:24:34.455Z,24
2018-07-24T12:25:35.193Z,24
2018-07-24T12:26:35.932Z,23
2018-07-24T12:27:36.684Z,23
2018-07-24T12:28:37.425Z,23
2018-07-24T12:29:38.177Z,22
2018-07-24T12:30:38.917Z,23
2018-07-24T12:31:39.657Z,24
2018-07-24T12:32:40.397Z,25
2018-07-24T12:33:41.135Z,25
2018-07-24T12:34:41.872Z,23
2018-07-24T12:35:42.616Z,23
2018-07-24T12:36:43.352Z,23
2018-07-24T12:37:44.091Z,22
2018-07-24T12:38:44.833Z,21
2018-07-24T12:39:45.570Z,20
2018-07-24T12:40:46.310Z,21
2018-07-24T12:41:47.049Z,20
2018-07-24T12:42:47.803Z,19
2018-07-24T12:43:48.549Z,19
2018-07-24T12:44:49.282Z,19
2018-07-24T12:45:50.034Z,21
2018-07-24T12:48:03.487Z,21
2018-07-24T12:49:04.223Z,20
2018-07-24T12:50:04.962Z,20
2018-07-24T12:51:05.701Z,20
2018-07-24T12:52:06.440Z,19
2018-07-24T12:53:07.183Z,19
2018-07-24T12:54:07.935Z,19
2018-07-24T12:55:08.682Z,19
2018-07-24T12:56:09.430Z,18
2018-07-24T12:57:10.173Z,19
2018-07-24T12:58:10.912Z,19
2018-07-24T12:59:11.650Z,19
2018-07-24T13:00:12.393Z,19
2018-07-24T13:01:13.143Z,19
2018-07-24T13:02:13.885Z,19
2018-07-24T13:03:14.625Z,20
2018-07-24T13:04:15.407Z,20
2018-07-24T13:05:16.111Z,19
2018-07-24T13:06:16.856Z,21
2018-07-24T13:07:17.610Z,21
2018-07-24T13:08:18.363Z,21
2018-07-24T13:09:19.103Z,20
2018-07-24T13:10:19.856Z,20
2018-07-24T13:11:20.596Z,20
2018-07-24T13:12:21.335Z,21
2018-07-24T13:13:22.077Z,21
2018-07-24T13:14:22.817Z,21
2018-07-24T13:15:23.569Z,20
2018-07-24T13:16:24.308Z,21
2018-07-24T13:17:25.048Z,20
2018-07-24T13:18:25.788Z,20
2018-07-24T13:19:26.596Z,19
2018-07-24T13:20:27.281Z,18
2018-07-24T13:21:28.021Z,19
2018-07-24T13:22:28.770Z,18
2018-07-24T13:23:29.509Z,18
2018-07-24T13:24:30.289Z,18
2018-07-24T13:25:31.034Z,18
2018-07-24T13:26:31.743Z,17
2018-07-24T13:27:32.488Z,17
2018-07-24T13:28:33.222Z,17
2018-07-24T13:29:33.963Z,16
2018-07-24T13:30:34.714Z,17
2018-07-24T13:31:35.455Z,16
2018-07-24T13:32:36.193Z,16
2018-07-24T13:33:36.933Z,16
2018-07-24T13:34:37.676Z,15
2018-07-24T13:35:38.426Z,16
2018-07-24T13:36:39.168Z,16
2018-07-24T13:37:39.962Z,17
2018-07-24T13:38:40.646Z,18
2018-07-24T13:39:41.387Z,19
2018-07-24T13:40:42.125Z,19
2018-07-24T13:41:42.865Z,19
2018-07-24T13:42:43.619Z,20
2018-07-24T13:43:44.359Z,19
2018-07-24T13:44:45.097Z,19
2018-07-24T13:45:45.836Z,20
2018-07-24T13:46:46.574Z,22
2018-07-24T13:47:47.315Z,23
2018-07-24T13:48:48.052Z,23
2018-07-24T13:49:48.803Z,24
2018-07-24T13:50:49.542Z,23
2018-07-24T13:51:50.279Z,23
2018-07-24T13:52:51.019Z,22
2018-07-24T13:53:51.755Z,23
2018-07-24T13:54:52.492Z,23
2018-07-24T13:55:53.230Z,23
2018-07-24T13:56:53.969Z,23
2018-07-24T13:57:54.706Z,24
2018-07-24T13:58:55.503Z,24
2018-07-24T13:59:56.185Z,23
2018-07-24T14:00:56.921Z,22
2018-07-24T14:01:57.674Z,24
2018-07-24T14:02:58.413Z,24
2018-07-24T14:03:59.152Z,24
2018-07-24T14:04:59.899Z,23
2018-07-24T14:06:00.652Z,24
2018-07-24T14:07:01.382Z,24
2018-07-24T14:08:02.115Z,25
2018-07-24T14:09:02.850Z,25
2018-07-24T14:10:03.586Z,26
2018-07-24T14:11:04.321Z,25
2018-07-24T14:12:05.061Z,25
2018-07-24T14:13:05.801Z,24
2018-07-24T14:14:06.552Z,24
2018-07-24T14:15:07.272Z,26
2018-07-24T14:16:08.007Z,25
2018-07-24T14:17:08.747Z,25
2018-07-24T14:18:09.484Z,27
2018-07-24T14:19:10.231Z,27
2018-07-24T14:20:10.965Z,27
2018-07-24T14:21:11.715Z,27
2018-07-24T14:22:12.454Z,28
2018-07-24T14:23:13.190Z,28
2018-07-24T14:24:13.926Z,28
2018-07-24T14:25:14.665Z,28
2018-07-24T14:26:15.402Z,28
2018-07-24T14:27:16.140Z,28
2018-07-24T14:28:16.877Z,28
2018-07-24T14:29:17.629Z,28
2018-07-24T14:30:18.377Z,28
2018-07-24T14:31:19.186Z,28
2018-07-24T14:32:19.863Z,28
2018-07-24T14:33:20.613Z,28
2018-07-24T14:34:21.352Z,28
2018-07-24T14:35:22.101Z,28
2018-07-24T14:36:22.841Z,28
2018-07-24T14:37:23.575Z,28
2018-07-24T14:38:24.312Z,29
2018-07-24T14:39:25.052Z,28
2018-07-24T14:40:25.810Z,28
2018-07-24T14:41:26.546Z,28
2018-07-24T14:42:27.289Z,27
2018-07-24T14:43:28.033Z,27
2018-07-24T14:44:28.790Z,26
2018-07-24T14:45:29.530Z,26
2018-07-24T14:46:30.292Z,26
2018-07-24T14:47:31.012Z,26
2018-07-24T14:48:31.752Z,26
2018-07-24T14:49:32.491Z,25
2018-07-24T14:50:33.229Z,26
2018-07-24T14:51:33.983Z,25
2018-07-24T14:52:34.766Z,25
2018-07-24T14:53:35.476Z,26
2018-07-24T14:54:36.214Z,26
2018-07-24T14:55:36.956Z,25
2018-07-24T14:56:37.700Z,25
2018-07-24T14:57:38.439Z,24
2018-07-24T14:58:39.213Z,24
2018-07-24T14:59:39.937Z,23
2018-07-24T15:00:40.678Z,23
2018-07-24T15:01:41.418Z,23
2018-07-24T15:02:42.163Z,22
2018-07-24T15:03:42.900Z,21
2018-07-24T15:04:43.723Z,22
2018-07-24T15:05:44.401Z,22